EZE weather

Ministro Pistarini International Airport
Buenos Aires, Buenos Aires Province, Argentina

Public forecast

Using degrees Celsius for public forecast. Weather courtesy of forecast.io.

Current aviation weather report (METAR) for Ministro Pistarini International Airport

Retrieved 2019/10/19 01:00 UTC (31 minutes ago):

SAEZ 190100Z 24003KT CAVOK 12/11 Q1022 NOSIG

Aviation forecast (TAF) for Ministro Pistarini International Airport

Retrieved 2019-10-19 00:00 UTC (2 hours ago):

TAF SAEZ 182300Z 1900/1924 VRB03KT CAVOK TX24/1918Z TN11/1910Z BECMG 1912/1914 18010KT BECMG 1919/1922 08015KT